sensor_id;sensor_type;location;lat;lon;timestamp;pressure;altitude;pressure_sealevel;temperature;humidity
8069;BME280;4077;43.702;24.896;2022-11-09T00:01:40;100118.22;;;8.83;100.00
8069;BME280;4077;43.702;24.896;2022-11-09T00:04:06;100127.16;;;8.96;100.00
8069;BME280;4077;43.702;24.896;2022-11-09T00:06:31;100126.88;;;9.17;100.00
8069;BME280;4077;43.702;24.896;2022-11-09T00:08:59;100132.34;;;9.27;100.00
8069;BME280;4077;43.702;24.896;2022-11-09T00:11:24;100133.81;;;9.19;100.00
8069;BME280;4077;43.702;24.896;2022-11-09T00:14:19;100113.00;;;9.12;100.00
8069;BME280;4077;43.702;24.896;2022-11-09T00:16:45;100130.97;;;9.09;100.00
8069;BME280;4077;43.702;24.896;2022-11-09T00:19:10;100121.75;;;8.87;100.00
8069;BME280;4077;43.702;24.896;2022-11-09T00:21:37;100117.66;;;8.93;100.00
8069;BME280;4077;43.702;24.896;2022-11-09T00:24:03;100120.44;;;9.01;100.00
8069;BME280;4077;43.702;24.896;2022-11-09T00:26:28;100129.81;;;8.99;100.00
8069;BME280;4077;43.702;24.896;2022-11-09T00:28:54;100129.41;;;8.85;100.00
8069;BME280;4077;43.702;24.896;2022-11-09T00:31:21;100127.22;;;8.99;100.00
8069;BME280;4077;43.702;24.896;2022-11-09T00:33:51;100131.97;;;8.84;100.00
8069;BME280;4077;43.702;24.896;2022-11-09T00:36:18;100127.94;;;8.63;100.00
8069;BME280;4077;43.702;24.896;2022-11-09T00:38:48;100102.66;;;8.50;100.00
8069;BME280;4077;43.702;24.896;2022-11-09T00:41:14;100116.13;;;8.41;100.00
8069;BME280;4077;43.702;24.896;2022-11-09T00:43:39;100112.63;;;8.38;100.00
8069;BME280;4077;43.702;24.896;2022-11-09T00:46:05;100122.16;;;8.42;100.00
8069;BME280;4077;43.702;24.896;2022-11-09T00:48:31;100113.31;;;8.34;100.00
8069;BME280;4077;43.702;24.896;2022-11-09T00:50:57;100122.38;;;8.49;100.00
8069;BME280;4077;43.702;24.896;2022-11-09T00:53:23;100128.00;;;8.65;100.00
8069;BME280;4077;43.702;24.896;2022-11-09T00:58:20;100129.78;;;8.67;100.00
8069;BME280;4077;43.702;24.896;2022-11-09T01:00:45;100130.22;;;8.53;100.00
8069;BME280;4077;43.702;24.896;2022-11-09T01:03:10;100128.50;;;8.53;100.00
8069;BME280;4077;43.702;24.896;2022-11-09T01:05:37;100122.16;;;8.42;100.00
8069;BME280;4077;43.702;24.896;2022-11-09T01:08:04;100128.84;;;8.37;100.00
8069;BME280;4077;43.702;24.896;2022-11-09T01:10:30;100117.41;;;8.29;100.00
8069;BME280;4077;43.702;24.896;2022-11-09T01:12:55;100129.03;;;8.43;100.00
8069;BME280;4077;43.702;24.896;2022-11-09T01:15:20;100129.34;;;8.52;100.00
8069;BME280;4077;43.702;24.896;2022-11-09T01:17:46;100130.00;;;8.46;100.00
8069;BME280;4077;43.702;24.896;2022-11-09T01:20:13;100123.66;;;8.35;100.00
8069;BME280;4077;43.702;24.896;2022-11-09T01:22:39;100130.00;;;8.19;100.00
8069;BME280;4077;43.702;24.896;2022-11-09T01:25:04;100126.53;;;8.17;100.00
8069;BME280;4077;43.702;24.896;2022-11-09T01:27:31;100112.66;;;8.12;100.00
8069;BME280;4077;43.702;24.896;2022-11-09T01:29:56;100119.44;;;8.10;100.00
8069;BME280;4077;43.702;24.896;2022-11-09T01:32:22;100125.81;;;8.23;100.00
8069;BME280;4077;43.702;24.896;2022-11-09T01:34:47;100114.19;;;8.07;100.00
8069;BME280;4077;43.702;24.896;2022-11-09T01:37:13;100127.88;;;8.06;100.00
8069;BME280;4077;43.702;24.896;2022-11-09T01:39:38;100118.22;;;7.99;100.00
8069;BME280;4077;43.702;24.896;2022-11-09T01:42:03;100123.84;;;8.14;100.00
8069;BME280;4077;43.702;24.896;2022-11-09T01:44:29;100122.88;;;8.11;100.00
8069;BME280;4077;43.702;24.896;2022-11-09T01:52:03;100126.81;;;8.00;100.00
8069;BME280;4077;43.702;24.896;2022-11-09T01:54:34;100125.34;;;7.81;100.00
8069;BME280;4077;43.702;24.896;2022-11-09T01:57:04;100126.28;;;7.83;100.00
8069;BME280;4077;43.702;24.896;2022-11-09T01:59:33;100128.53;;;7.74;100.00
8069;BME280;4077;43.702;24.896;2022-11-09T02:02:00;100120.06;;;7.51;100.00
8069;BME280;4077;43.702;24.896;2022-11-09T02:04:33;100122.38;;;7.95;100.00
8069;BME280;4077;43.702;24.896;2022-11-09T02:07:00;100111.38;;;7.73;100.00
8069;BME280;4077;43.702;24.896;2022-11-09T02:12:21;100127.50;;;7.68;100.00
8069;BME280;4077;43.702;24.896;2022-11-09T02:14:48;100127.03;;;7.80;100.00
8069;BME280;4077;43.702;24.896;2022-11-09T02:17:17;100126.91;;;7.76;100.00
8069;BME280;4077;43.702;24.896;2022-11-09T02:19:43;100116.50;;;7.73;100.00
8069;BME280;4077;43.702;24.896;2022-11-09T02:22:08;100121.03;;;7.80;100.00
8069;BME280;4077;43.702;24.896;2022-11-09T02:24:34;100130.09;;;7.95;100.00
8069;BME280;4077;43.702;24.896;2022-11-09T02:26:59;100138.16;;;8.06;100.00
8069;BME280;4077;43.702;24.896;2022-11-09T02:29:28;100142.44;;;8.33;100.00
8069;BME280;4077;43.702;24.896;2022-11-09T02:32:02;100130.00;;;8.46;100.00
8069;BME280;4077;43.702;24.896;2022-11-09T02:34:30;100125.28;;;8.33;100.00
8069;BME280;4077;43.702;24.896;2022-11-09T02:36:55;100137.41;;;8.36;100.00
8069;BME280;4077;43.702;24.896;2022-11-09T02:39:22;100127.28;;;8.42;100.00
8069;BME280;4077;43.702;24.896;2022-11-09T02:41:53;100135.38;;;8.54;100.00
8069;BME280;4077;43.702;24.896;2022-11-09T02:44:20;100137.78;;;8.48;100.00
8069;BME280;4077;43.702;24.896;2022-11-09T02:46:46;100130.41;;;8.32;100.00
8069;BME280;4077;43.702;24.896;2022-11-09T02:49:12;100137.25;;;8.31;100.00
8069;BME280;4077;43.702;24.896;2022-11-09T02:51:38;100138.94;;;8.31;100.00
8069;BME280;4077;43.702;24.896;2022-11-09T02:54:03;100146.13;;;8.41;100.00
8069;BME280;4077;43.702;24.896;2022-11-09T02:56:28;100136.06;;;8.21;100.00
8069;BME280;4077;43.702;24.896;2022-11-09T02:58:54;100132.38;;;8.13;100.00
8069;BME280;4077;43.702;24.896;2022-11-09T03:01:19;100134.38;;;8.22;100.00
8069;BME280;4077;43.702;24.896;2022-11-09T03:03:45;100134.75;;;8.07;100.00
8069;BME280;4077;43.702;24.896;2022-11-09T03:06:10;100133.22;;;8.12;100.00
8069;BME280;4077;43.702;24.896;2022-11-09T03:08:36;100133.41;;;8.18;100.00
8069;BME280;4077;43.702;24.896;2022-11-09T03:11:01;100142.16;;;8.23;100.00
8069;BME280;4077;43.702;24.896;2022-11-09T03:13:27;100133.19;;;8.11;100.00
8069;BME280;4077;43.702;24.896;2022-11-09T03:15:53;100136.41;;;8.05;100.00
8069;BME280;4077;43.702;24.896;2022-11-09T03:18:18;100136.69;;;8.14;100.00
8069;BME280;4077;43.702;24.896;2022-11-09T03:20:44;100139.03;;;8.07;100.00
8069;BME280;4077;43.702;24.896;2022-11-09T03:23:09;100141.66;;;8.08;100.00
8069;BME280;4077;43.702;24.896;2022-11-09T03:25:38;100144.81;;;8.00;100.00
8069;BME280;4077;43.702;24.896;2022-11-09T03:28:05;100139.69;;;8.01;100.00
8069;BME280;4077;43.702;24.896;2022-11-09T03:30:31;100140.53;;;7.75;100.00
8069;BME280;4077;43.702;24.896;2022-11-09T03:33:02;100135.72;;;7.84;100.00
8069;BME280;4077;43.702;24.896;2022-11-09T03:35:28;100134.28;;;7.66;100.00
8069;BME280;4077;43.702;24.896;2022-11-09T03:37:53;100128.91;;;7.59;100.00
8069;BME280;4077;43.702;24.896;2022-11-09T03:40:19;100134.41;;;7.70;100.00
8069;BME280;4077;43.702;24.896;2022-11-09T03:42:46;100133.19;;;7.85;100.00
8069;BME280;4077;43.702;24.896;2022-11-09T03:45:12;100141.78;;;7.86;100.00
8069;BME280;4077;43.702;24.896;2022-11-09T03:47:42;100141.72;;;8.10;100.00
8069;BME280;4077;43.702;24.896;2022-11-09T03:50:08;100140.56;;;8.02;100.00
8069;BME280;4077;43.702;24.896;2022-11-09T03:52:35;100147.66;;;8.09;100.00
8069;BME280;4077;43.702;24.896;2022-11-09T03:55:01;100146.69;;;8.05;100.00
8069;BME280;4077;43.702;24.896;2022-11-09T03:57:26;100148.44;;;8.06;100.00
8069;BME280;4077;43.702;24.896;2022-11-09T03:59:52;100143.16;;;8.02;100.00
8069;BME280;4077;43.702;24.896;2022-11-09T04:02:17;100139.00;;;7.80;100.00
8069;BME280;4077;43.702;24.896;2022-11-09T04:04:42;100140.75;;;7.81;100.00
8069;BME280;4077;43.702;24.896;2022-11-09T04:07:09;100150.00;;;8.01;100.00
8069;BME280;4077;43.702;24.896;2022-11-09T04:09:35;100148.66;;;8.12;100.00
8069;BME280;4077;43.702;24.896;2022-11-09T04:12:00;100149.94;;;8.27;100.00
8069;BME280;4077;43.702;24.896;2022-11-09T04:14:26;100155.63;;;8.16;100.00
8069;BME280;4077;43.702;24.896;2022-11-09T04:16:51;100146.16;;;8.15;100.00
8069;BME280;4077;43.702;24.896;2022-11-09T04:19:17;100150.38;;;8.13;100.00
8069;BME280;4077;43.702;24.896;2022-11-09T04:21:42;100148.84;;;8.18;100.00
8069;BME280;4077;43.702;24.896;2022-11-09T04:24:08;100147.84;;;8.15;100.00
8069;BME280;4077;43.702;24.896;2022-11-09T04:26:33;100143.59;;;8.15;100.00
8069;BME280;4077;43.702;24.896;2022-11-09T04:28:59;100146.34;;;8.21;100.00
8069;BME280;4077;43.702;24.896;2022-11-09T04:31:24;100144.72;;;8.23;100.00
8069;BME280;4077;43.702;24.896;2022-11-09T04:33:50;100147.47;;;8.30;100.00
8069;BME280;4077;43.702;24.896;2022-11-09T04:36:15;100149.94;;;8.27;100.00
8069;BME280;4077;43.702;24.896;2022-11-09T04:38:41;100145.44;;;8.19;100.00
8069;BME280;4077;43.702;24.896;2022-11-09T04:41:06;100152.72;;;8.33;100.00
8069;BME280;4077;43.702;24.896;2022-11-09T04:43:33;100158.47;;;8.51;100.00
8069;BME280;4077;43.702;24.896;2022-11-09T04:46:10;100155.13;;;8.84;100.00
8069;BME280;4077;43.702;24.896;2022-11-09T04:48:36;100169.91;;;8.61;100.00
8069;BME280;4077;43.702;24.896;2022-11-09T04:51:04;100154.75;;;8.71;100.00
8069;BME280;4077;43.702;24.896;2022-11-09T04:53:30;100158.91;;;8.66;100.00
8069;BME280;4077;43.702;24.896;2022-11-09T04:55:56;100167.72;;;8.74;100.00
8069;BME280;4077;43.702;24.896;2022-11-09T04:58:22;100152.59;;;8.57;100.00
8069;BME280;4077;43.702;24.896;2022-11-09T05:00:47;100166.03;;;8.46;100.00
8069;BME280;4077;43.702;24.896;2022-11-09T05:03:13;100165.75;;;8.37;100.00
8069;BME280;4077;43.702;24.896;2022-11-09T05:05:39;100167.81;;;8.49;100.00
8069;BME280;4077;43.702;24.896;2022-11-09T05:08:05;100174.13;;;8.59;100.00
8069;BME280;4077;43.702;24.896;2022-11-09T05:10:31;100166.06;;;8.48;100.00
8069;BME280;4077;43.702;24.896;2022-11-09T05:13:01;100172.97;;;8.49;100.00
8069;BME280;4077;43.702;24.896;2022-11-09T05:15:27;100178.25;;;8.27;100.00
8069;BME280;4077;43.702;24.896;2022-11-09T05:17:53;100178.03;;;8.20;100.00
8069;BME280;4077;43.702;24.896;2022-11-09T05:20:19;100172.69;;;8.14;100.00
8069;BME280;4077;43.702;24.896;2022-11-09T05:22:44;100182.91;;;8.11;100.00
8069;BME280;4077;43.702;24.896;2022-11-09T05:25:28;100188.03;;;8.11;100.00
8069;BME280;4077;43.702;24.896;2022-11-09T05:27:54;100185.88;;;7.98;100.00
8069;BME280;4077;43.702;24.896;2022-11-09T05:30:19;100182.22;;;8.17;100.00
8069;BME280;4077;43.702;24.896;2022-11-09T05:32:45;100185.13;;;8.28;100.00
8069;BME280;4077;43.702;24.896;2022-11-09T05:35:11;100185.13;;;8.28;100.00
8069;BME280;4077;43.702;24.896;2022-11-09T05:37:39;100195.53;;;8.58;100.00
8069;BME280;4077;43.702;24.896;2022-11-09T05:40:07;100199.22;;;8.66;100.00
8069;BME280;4077;43.702;24.896;2022-11-09T05:42:33;100192.00;;;8.54;100.00
8069;BME280;4077;43.702;24.896;2022-11-09T05:44:58;100196.50;;;8.61;100.00
8069;BME280;4077;43.702;24.896;2022-11-09T05:47:24;100212.69;;;8.86;100.00
8069;BME280;4077;43.702;24.896;2022-11-09T05:49:49;100215.16;;;8.83;100.00
8069;BME280;4077;43.702;24.896;2022-11-09T05:52:15;100211.03;;;8.88;100.00
8069;BME280;4077;43.702;24.896;2022-11-09T05:54:40;100209.22;;;8.85;100.00
8069;BME280;4077;43.702;24.896;2022-11-09T05:57:06;100215.38;;;8.90;100.00
8069;BME280;4077;43.702;24.896;2022-11-09T05:59:31;100212.50;;;8.80;100.00
8069;BME280;4077;43.702;24.896;2022-11-09T06:01:57;100219.41;;;8.81;100.00
8069;BME280;4077;43.702;24.896;2022-11-09T06:04:22;100215.31;;;8.87;100.00
8069;BME280;4077;43.702;24.896;2022-11-09T06:06:47;100225.56;;;9.14;100.00
8069;BME280;4077;43.702;24.896;2022-11-09T06:09:13;100221.31;;;9.16;100.00
8069;BME280;4077;43.702;24.896;2022-11-09T06:11:38;100227.13;;;9.09;100.00
8069;BME280;4077;43.702;24.896;2022-11-09T06:14:04;100212.97;;;9.25;100.00
8069;BME280;4077;43.702;24.896;2022-11-09T06:16:29;100241.63;;;9.36;100.00
8069;BME280;4077;43.702;24.896;2022-11-09T06:18:55;100226.41;;;9.45;100.00
8069;BME280;4077;43.702;24.896;2022-11-09T06:21:20;100241.38;;;9.58;100.00
8069;BME280;4077;43.702;24.896;2022-11-09T06:23:45;100237.72;;;9.81;100.00
8069;BME280;4077;43.702;24.896;2022-11-09T06:26:12;100243.31;;;9.98;100.00
8069;BME280;4077;43.702;24.896;2022-11-09T06:28:39;100247.16;;;10.14;100.00
8069;BME280;4077;43.702;24.896;2022-11-09T06:31:06;100249.16;;;10.23;100.00
8069;BME280;4077;43.702;24.896;2022-11-09T06:33:33;100246.25;;;10.45;100.00
8069;BME280;4077;43.702;24.896;2022-11-09T06:36:00;100249.81;;;10.50;100.00
8069;BME280;4077;43.702;24.896;2022-11-09T06:38:26;100252.41;;;10.50;100.00
8069;BME280;4077;43.702;24.896;2022-11-09T06:40:55;100246.16;;;10.78;100.00
8069;BME280;4077;43.702;24.896;2022-11-09T06:43:22;100254.69;;;10.76;100.00
8069;BME280;4077;43.702;24.896;2022-11-09T06:45:47;100247.06;;;10.80;100.00
8069;BME280;4077;43.702;24.896;2022-11-09T06:48:13;100242.50;;;10.70;100.00
8069;BME280;4077;43.702;24.896;2022-11-09T06:50:38;100245.19;;;10.73;100.00
8069;BME280;4077;43.702;24.896;2022-11-09T06:53:06;100242.66;;;10.76;100.00
8069;BME280;4077;43.702;24.896;2022-11-09T06:55:33;100244.03;;;10.98;100.00
8069;BME280;4077;43.702;24.896;2022-11-09T06:57:59;100249.41;;;11.09;100.00
8069;BME280;4077;43.702;24.896;2022-11-09T07:00:26;100251.69;;;11.34;100.00
8069;BME280;4077;43.702;24.896;2022-11-09T07:02:52;100249.56;;;11.59;100.00
8069;BME280;4077;43.702;24.896;2022-11-09T07:05:18;100259.56;;;11.83;100.00
8069;BME280;4077;43.702;24.896;2022-11-09T07:07:44;100263.88;;;11.84;100.00
8069;BME280;4077;43.702;24.896;2022-11-09T07:10:10;100267.72;;;12.05;100.00
8069;BME280;4077;43.702;24.896;2022-11-09T07:12:36;100272.50;;;12.31;100.00
8069;BME280;4077;43.702;24.896;2022-11-09T07:15:02;100270.56;;;12.72;100.00
8069;BME280;4077;43.702;24.896;2022-11-09T07:17:29;100269.25;;;12.99;100.00
8069;BME280;4077;43.702;24.896;2022-11-09T07:19:55;100275.56;;;13.18;100.00
8069;BME280;4077;43.702;24.896;2022-11-09T07:22:20;100277.63;;;13.41;100.00
8069;BME280;4077;43.702;24.896;2022-11-09T07:24:46;100284.84;;;13.68;100.00
8069;BME280;4077;43.702;24.896;2022-11-09T07:27:11;100284.22;;;13.86;100.00
8069;BME280;4077;43.702;24.896;2022-11-09T07:29:37;100288.47;;;13.80;100.00
8069;BME280;4077;43.702;24.896;2022-11-09T07:32:02;100286.75;;;13.85;100.00
8069;BME280;4077;43.702;24.896;2022-11-09T07:34:28;100282.47;;;13.87;100.00
8069;BME280;4077;43.702;24.896;2022-11-09T07:36:54;100289.06;;;14.42;100.00
8069;BME280;4077;43.702;24.896;2022-11-09T07:39:20;100282.31;;;14.58;100.00
8069;BME280;4077;43.702;24.896;2022-11-09T07:41:46;100271.13;;;14.70;100.00
8069;BME280;4077;43.702;24.896;2022-11-09T07:44:13;100291.69;;;14.44;100.00
8069;BME280;4077;43.702;24.896;2022-11-09T07:46:46;100290.91;;;14.51;100.00
8069;BME280;4077;43.702;24.896;2022-11-09T07:49:12;100279.75;;;14.67;100.00
8069;BME280;4077;43.702;24.896;2022-11-09T07:51:38;100278.91;;;14.68;100.00
8069;BME280;4077;43.702;24.896;2022-11-09T07:54:04;100291.06;;;14.69;100.00
8069;BME280;4077;43.702;24.896;2022-11-09T07:56:29;100282.47;;;14.78;100.00
8069;BME280;4077;43.702;24.896;2022-11-09T07:58:55;100289.47;;;14.93;100.00
8069;BME280;4077;43.702;24.896;2022-11-09T08:01:20;100297.19;;;14.82;100.00
8069;BME280;4077;43.702;24.896;2022-11-09T08:03:46;100282.34;;;14.64;100.00
8069;BME280;4077;43.702;24.896;2022-11-09T08:06:11;100292.00;;;14.81;100.00
8069;BME280;4077;43.702;24.896;2022-11-09T08:08:36;100285.97;;;14.83;100.00
8069;BME280;4077;43.702;24.896;2022-11-09T08:11:02;100299.84;;;14.84;100.00
8069;BME280;4077;43.702;24.896;2022-11-09T08:13:27;100299.03;;;14.95;100.00
8069;BME280;4077;43.702;24.896;2022-11-09T08:15:53;100296.50;;;15.09;100.00
8069;BME280;4077;43.702;24.896;2022-11-09T08:18:20;100300.13;;;15.37;100.00
8069;BME280;4077;43.702;24.896;2022-11-09T08:20:46;100298.47;;;15.47;100.00
8069;BME280;4077;43.702;24.896;2022-11-09T08:23:13;100305.44;;;15.54;100.00
8069;BME280;4077;43.702;24.896;2022-11-09T08:25:39;100300.22;;;15.57;100.00
8069;BME280;4077;43.702;24.896;2022-11-09T08:28:05;100301.19;;;15.67;100.00
8069;BME280;4077;43.702;24.896;2022-11-09T08:30:31;100302.06;;;15.76;100.00
8069;BME280;4077;43.702;24.896;2022-11-09T08:32:58;100305.53;;;15.75;100.00
8069;BME280;4077;43.702;24.896;2022-11-09T08:35:24;100303.81;;;15.77;100.00
8069;BME280;4077;43.702;24.896;2022-11-09T08:37:51;100305.59;;;15.89;100.00
8069;BME280;4077;43.702;24.896;2022-11-09T08:40:19;100303.00;;;16.03;100.00
8069;BME280;4077;43.702;24.896;2022-11-09T08:42:45;100302.97;;;15.91;100.00
8069;BME280;4077;43.702;24.896;2022-11-09T08:45:12;100303.84;;;15.80;100.00
8069;BME280;4077;43.702;24.896;2022-11-09T08:47:37;100294.25;;;15.75;100.00
8069;BME280;4077;43.702;24.896;2022-11-09T08:50:05;100289.94;;;15.83;100.00
8069;BME280;4077;43.702;24.896;2022-11-09T08:52:31;100289.97;;;15.91;100.00
8069;BME280;4077;43.702;24.896;2022-11-09T08:54:57;100289.03;;;15.70;100.00
8069;BME280;4077;43.702;24.896;2022-11-09T08:57:23;100294.25;;;15.75;100.00
8069;BME280;4077;43.702;24.896;2022-11-09T08:59:48;100287.38;;;15.86;100.00
8069;BME280;4077;43.702;24.896;2022-11-09T09:02:14;100288.28;;;16.19;100.00
8069;BME280;4077;43.702;24.896;2022-11-09T09:04:40;100281.34;;;16.47;100.00
8069;BME280;4077;43.702;24.896;2022-11-09T09:07:07;100290.06;;;16.73;100.00
8069;BME280;4077;43.702;24.896;2022-11-09T09:09:32;100280.50;;;16.80;100.00
8069;BME280;4077;43.702;24.896;2022-11-09T09:11:59;100295.25;;;17.07;100.00
8069;BME280;4077;43.702;24.896;2022-11-09T09:14:25;100293.44;;;17.36;99.83
8069;BME280;4077;43.702;24.896;2022-11-09T09:16:50;100291.69;;;17.38;97.59
8069;BME280;4077;43.702;24.896;2022-11-09T09:19:16;100287.41;;;17.13;97.54
8069;BME280;4077;43.702;24.896;2022-11-09T09:21:41;100280.47;;;17.00;98.75
8069;BME280;4077;43.702;24.896;2022-11-09T09:24:07;100277.91;;;16.72;100.00
8069;BME280;4077;43.702;24.896;2022-11-09T09:26:32;100275.28;;;16.61;100.00
8069;BME280;4077;43.702;24.896;2022-11-09T09:28:58;100280.50;;;16.48;100.00
8069;BME280;4077;43.702;24.896;2022-11-09T09:31:23;100262.25;;;16.35;100.00
8069;BME280;4077;43.702;24.896;2022-11-09T09:33:49;100273.53;;;16.36;100.00
8069;BME280;4077;43.702;24.896;2022-11-09T09:36:19;100267.47;;;16.43;100.00
8069;BME280;4077;43.702;24.896;2022-11-09T09:38:46;100266.59;;;16.46;100.00
8069;BME280;4077;43.702;24.896;2022-11-09T09:41:26;100267.50;;;16.75;100.00
8069;BME280;4077;43.702;24.896;2022-11-09T09:43:56;100268.34;;;16.79;100.00
8069;BME280;4077;43.702;24.896;2022-11-09T09:46:34;100257.91;;;16.91;100.00
8069;BME280;4077;43.702;24.896;2022-11-09T09:49:11;100257.88;;;16.88;100.00
8069;BME280;4077;43.702;24.896;2022-11-09T09:51:41;100259.63;;;16.86;100.00
8069;BME280;4077;43.702;24.896;2022-11-09T09:54:20;100255.31;;;16.77;100.00
8069;BME280;4077;43.702;24.896;2022-11-09T09:56:48;100246.59;;;16.80;100.00
8069;BME280;4077;43.702;24.896;2022-11-09T10:01:49;100252.69;;;16.89;100.00
8069;BME280;4077;43.702;24.896;2022-11-09T10:04:19;100255.25;;;17.05;100.00
8069;BME280;4077;43.702;24.896;2022-11-09T10:09:48;100246.50;;;17.15;100.00
8069;BME280;4077;43.702;24.896;2022-11-09T10:17:44;100239.47;;;17.35;98.03
8069;BME280;4077;43.702;24.896;2022-11-09T10:26:04;100239.44;;;17.47;95.43
8069;BME280;4077;43.702;24.896;2022-11-09T10:28:37;100235.09;;;17.42;95.90
8069;BME280;4077;43.702;24.896;2022-11-09T10:31:17;100233.25;;;17.62;95.94
8069;BME280;4077;43.702;24.896;2022-11-09T10:33:45;100229.00;;;17.47;96.13
8069;BME280;4077;43.702;24.896;2022-11-09T10:36:23;100229.75;;;17.69;93.93
8069;BME280;4077;43.702;24.896;2022-11-09T10:38:50;100224.59;;;17.59;93.58
8069;BME280;4077;43.702;24.896;2022-11-09T10:41:38;100228.84;;;17.81;93.18
8069;BME280;4077;43.702;24.896;2022-11-09T10:44:04;100228.97;;;17.54;91.99
8069;BME280;4077;43.702;24.896;2022-11-09T10:46:29;100216.78;;;17.53;90.54
8069;BME280;4077;43.702;24.896;2022-11-09T10:49:20;100215.75;;;17.89;89.48
8069;BME280;4077;43.702;24.896;2022-11-09T10:51:45;100218.38;;;17.84;89.41
8069;BME280;4077;43.702;24.896;2022-11-09T10:54:21;100213.03;;;17.98;87.63
8069;BME280;4077;43.702;24.896;2022-11-09T10:56:51;100204.53;;;17.73;87.43
8069;BME280;4077;43.702;24.896;2022-11-09T11:04:49;100196.81;;;17.45;86.87
8069;BME280;4077;43.702;24.896;2022-11-09T11:07:18;100190.66;;;17.59;87.06
8069;BME280;4077;43.702;24.896;2022-11-09T11:09:44;100184.63;;;17.47;86.99
8069;BME280;4077;43.702;24.896;2022-11-09T11:12:15;100185.34;;;17.69;86.58
8069;BME280;4077;43.702;24.896;2022-11-09T11:14:42;100183.63;;;17.67;86.13
8069;BME280;4077;43.702;24.896;2022-11-09T11:17:34;100185.28;;;17.83;83.15
8069;BME280;4077;43.702;24.896;2022-11-09T11:20:26;100182.66;;;17.88;83.45
8069;BME280;4077;43.702;24.896;2022-11-09T11:23:22;100178.38;;;17.76;85.06
8069;BME280;4077;43.702;24.896;2022-11-09T11:28:45;100181.00;;;17.77;84.49
8069;BME280;4077;43.702;24.896;2022-11-09T11:31:17;100181.88;;;17.69;83.83
8069;BME280;4077;43.702;24.896;2022-11-09T11:33:43;100181.09;;;17.59;83.78
8069;BME280;4077;43.702;24.896;2022-11-09T11:38:58;100171.34;;;17.87;83.97
8069;BME280;4077;43.702;24.896;2022-11-09T11:44:30;100174.69;;;18.08;82.51
8069;BME280;4077;43.702;24.896;2022-11-09T11:47:35;100173.78;;;18.09;82.12
8069;BME280;4077;43.702;24.896;2022-11-09T11:50:34;100167.66;;;18.11;82.24
8069;BME280;4077;43.702;24.896;2022-11-09T11:58:46;100166.84;;;18.04;80.65
8069;BME280;4077;43.702;24.896;2022-11-09T12:01:41;100168.59;;;18.07;80.59
8069;BME280;4077;43.702;24.896;2022-11-09T12:12:22;100167.72;;;18.03;79.98
8069;BME280;4077;43.702;24.896;2022-11-09T12:23:16;100157.25;;;18.08;78.96
8069;BME280;4077;43.702;24.896;2022-11-09T12:25:51;100145.13;;;18.01;79.53
8069;BME280;4077;43.702;24.896;2022-11-09T12:28:31;100144.28;;;17.96;78.41
8069;BME280;4077;43.702;24.896;2022-11-09T12:36:36;100141.56;;;18.10;76.67
8069;BME280;4077;43.702;24.896;2022-11-09T12:39:10;100145.97;;;18.01;76.43
8069;BME280;4077;43.702;24.896;2022-11-09T12:41:37;100146.06;;;17.94;75.53
8069;BME280;4077;43.702;24.896;2022-11-09T12:44:27;100131.97;;;18.13;75.15
8069;BME280;4077;43.702;24.896;2022-11-09T12:47:04;100138.16;;;18.01;75.74
8069;BME280;4077;43.702;24.896;2022-11-09T12:51:58;100123.56;;;17.74;76.87
8069;BME280;4077;43.702;24.896;2022-11-09T12:54:24;100118.28;;;17.81;75.97
8069;BME280;4077;43.702;24.896;2022-11-09T12:56:59;100109.63;;;17.74;76.18
8069;BME280;4077;43.702;24.896;2022-11-09T13:01:56;100125.22;;;17.86;75.88
8069;BME280;4077;43.702;24.896;2022-11-09T13:04:23;100120.97;;;17.67;76.69
8069;BME280;4077;43.702;24.896;2022-11-09T13:09:33;100122.78;;;17.56;76.98
8069;BME280;4077;43.702;24.896;2022-11-09T13:50:54;100109.34;;;16.53;89.05
8069;BME280;4077;43.702;24.896;2022-11-09T13:58:47;100116.28;;;16.63;86.81
8069;BME280;4077;43.702;24.896;2022-11-09T14:01:28;100119.75;;;16.71;86.34
8069;BME280;4077;43.702;24.896;2022-11-09T14:03:54;100125.81;;;16.76;86.17
8069;BME280;4077;43.702;24.896;2022-11-09T14:06:19;100123.19;;;16.84;85.92
8069;BME280;4077;43.702;24.896;2022-11-09T14:08:46;100131.03;;;16.82;85.64
8069;BME280;4077;43.702;24.896;2022-11-09T14:14:16;100126.69;;;16.75;87.10
8069;BME280;4077;43.702;24.896;2022-11-09T14:17:00;100121.47;;;16.66;87.47
8069;BME280;4077;43.702;24.896;2022-11-09T14:22:13;100121.53;;;16.43;88.21
8069;BME280;4077;43.702;24.896;2022-11-09T14:24:41;100111.16;;;16.20;89.06
8069;BME280;4077;43.702;24.896;2022-11-09T14:32:30;100105.03;;;16.32;91.58
8069;BME280;4077;43.702;24.896;2022-11-09T14:37:46;100105.94;;;16.11;94.24
8069;BME280;4077;43.702;24.896;2022-11-09T14:40:26;100114.63;;;16.10;95.22
8069;BME280;4077;43.702;24.896;2022-11-09T14:43:03;100104.25;;;15.95;96.07
8069;BME280;4077;43.702;24.896;2022-11-09T14:45:30;100105.91;;;15.56;98.72
8069;BME280;4077;43.702;24.896;2022-11-09T14:47:59;100098.97;;;15.40;100.00
8069;BME280;4077;43.702;24.896;2022-11-09T14:50:28;100105.00;;;15.20;100.00
8069;BME280;4077;43.702;24.896;2022-11-09T14:52:56;100105.78;;;14.95;100.00
8069;BME280;4077;43.702;24.896;2022-11-09T14:55:23;100098.78;;;14.78;100.00
8069;BME280;4077;43.702;24.896;2022-11-09T14:57:51;100092.69;;;14.69;100.00
8069;BME280;4077;43.702;24.896;2022-11-09T15:00:32;100090.00;;;14.52;100.00
8069;BME280;4077;43.702;24.896;2022-11-09T15:02:59;100101.19;;;14.43;100.00
8069;BME280;4077;43.702;24.896;2022-11-09T15:05:45;100095.19;;;14.52;100.00
8069;BME280;4077;43.702;24.896;2022-11-09T15:08:28;100107.44;;;14.77;100.00
8069;BME280;4077;43.702;24.896;2022-11-09T15:10:54;100095.81;;;14.14;100.00
8069;BME280;4077;43.702;24.896;2022-11-09T15:13:32;100090.50;;;13.94;100.00
8069;BME280;4077;43.702;24.896;2022-11-09T15:15:59;100084.06;;;13.51;100.00
8069;BME280;4077;43.702;24.896;2022-11-09T15:18:27;100090.81;;;13.34;100.00